Time;durP1;ratioP1;P1;durP2;ratioP2;P2;SDS_P1;SDS_P2;PMS_P1;PMS_P2;Temp;Humidity;BMP_temperature;BMP_pressure;BME280_temperature;BME280_humidity;BME280_pressure;Samples;Min_cycle;Max_cycle;Signal;HPM_P1;HPM_P2
2021/09/07 00:00:15;;;;;;;;;;;;;;;14.96;63.05;97169.44;5056500;28;20467;-85
2021/09/07 00:02:41;;;;;;;;;;;;;;;14.91;63.36;97172.75;5056018;28;20014;-85
2021/09/07 00:05:08;;;;;;;;;;;;;;;14.88;63.23;97164.47;5054839;28;20375;-85
2021/09/07 00:07:34;;;;;;;;;;;;;;;14.85;63.34;97168.38;5056019;28;20002;-85
2021/09/07 00:10:00;;;;;;;;;;;;;;;14.82;63.56;97164.38;5054967;28;20002;-85
2021/09/07 00:12:26;;;;;;;;;;;;;;;14.78;63.81;97163.22;5055869;28;20495;-84
2021/09/07 00:14:51;;;;;;;;;;;;;;;14.75;64.06;97160.22;5055993;28;20063;-85
2021/09/07 00:17:17;;;;;;;;;;;;;;;14.73;64.39;97162.28;5056528;28;20002;-85
2021/09/07 00:19:43;;;;;;;;;;;;;;;14.68;64.32;97162.94;5056098;28;20097;-84
2021/09/07 00:22:09;;;;;;;;;;;;;;;14.65;64.07;97157.31;5055761;28;20068;-85
2021/09/07 00:24:35;;;;;;;;;;;;;;;14.63;64.32;97159.38;5055801;28;20491;-85
2021/09/07 00:27:01;;;;;;;;;;;;;;;14.60;64.18;97160.63;5055718;28;20038;-85
2021/09/07 00:29:27;;;;;;;;;;;;;;;14.57;64.54;97161.06;5055828;28;20357;-85
2021/09/07 00:31:53;;;;;;;;;;;;;;;14.53;64.27;97154.59;5055828;28;19960;-85
2021/09/07 00:34:19;;;;;;;;;;;;;;;14.49;64.36;97159.53;5055621;28;20052;-85
2021/09/07 00:36:45;;;;;;;;;;;;;;;14.47;64.74;97161.59;5055547;28;20003;-85
2021/09/07 00:39:12;;;;;;;;;;;;;;;14.44;64.89;97155.97;5055298;28;20005;-85
2021/09/07 00:41:39;;;;;;;;;;;;;;;14.41;64.88;97155.38;5055086;28;20375;-85
2021/09/07 00:44:14;;;;;;;;;;;;;;;14.39;64.53;97151.38;5055403;28;19987;-85
2021/09/07 00:46:41;;;;;;;;;;;;;;;14.37;64.62;97156.84;5055843;28;19998;-85
2021/09/07 00:49:07;;;;;;;;;;;;;;;14.36;64.79;97157.06;5053359;28;20002;-85
2021/09/07 00:51:34;;;;;;;;;;;;;;;14.33;65.28;97154.91;5054900;28;20009;-85
2021/09/07 00:54:00;;;;;;;;;;;;;;;14.30;65.10;97160.59;5055040;28;20455;-84
2021/09/07 00:56:27;;;;;;;;;;;;;;;14.27;65.41;97159.22;5055203;28;20013;-85
2021/09/07 00:58:53;;;;;;;;;;;;;;;14.21;65.22;97157.47;5055855;28;19999;-85
2021/09/07 01:01:19;;;;;;;;;;;;;;;14.17;65.38;97154.50;5055285;28;20105;-85
2021/09/07 01:03:45;;;;;;;;;;;;;;;14.14;65.56;97152.28;5054805;28;20547;-85
2021/09/07 01:06:11;;;;;;;;;;;;;;;14.12;65.54;97146.44;5054941;28;20002;-85
2021/09/07 01:08:38;;;;;;;;;;;;;;;14.09;65.87;97154.81;5054804;28;20006;-85
2021/09/07 01:11:04;;;;;;;;;;;;;;;14.06;65.81;97149.16;5054863;28;19998;-85
2021/09/07 01:13:29;;;;;;;;;;;;;;;14.02;66.27;97149.59;5053231;28;20025;-85
2021/09/07 01:15:55;;;;;;;;;;;;;;;14.01;66.32;97145.34;5054755;28;20443;-85
2021/09/07 01:18:21;;;;;;;;;;;;;;;13.98;66.55;97150.25;5053578;28;20052;-85
2021/09/07 01:20:47;;;;;;;;;;;;;;;13.95;66.46;97146.25;5054428;28;19966;-85
2021/09/07 01:23:13;;;;;;;;;;;;;;;13.93;66.20;97142.22;5053137;28;20167;-85
2021/09/07 01:25:39;;;;;;;;;;;;;;;13.92;66.37;97148.50;5054668;28;19980;-85
2021/09/07 01:28:05;;;;;;;;;;;;;;;13.89;66.58;97141.06;5054674;28;20003;-85
2021/09/07 01:30:30;;;;;;;;;;;;;;;13.87;66.43;97146.53;5054960;28;19971;-85
2021/09/07 01:32:56;;;;;;;;;;;;;;;13.85;66.36;97140.69;5054521;28;19972;-85
2021/09/07 01:35:22;;;;;;;;;;;;;;;13.84;66.80;97143.53;5053239;28;19960;-85
2021/09/07 01:37:48;;;;;;;;;;;;;;;13.81;66.75;97140.31;5054297;28;20434;-85
2021/09/07 01:40:14;;;;;;;;;;;;;;;13.78;66.87;97143.41;5054587;28;20000;-85
2021/09/07 01:42:41;;;;;;;;;;;;;;;13.77;66.96;97135.72;5054147;28;20023;-85
2021/09/07 01:45:08;;;;;;;;;;;;;;;13.73;67.51;97137.19;5054836;28;19973;-85
2021/09/07 01:47:36;;;;;;;;;;;;;;;13.69;67.62;97134.19;5054127;28;19968;-85
2021/09/07 01:50:02;;;;;;;;;;;;;;;13.67;67.30;97125.69;5054177;28;19963;-85
2021/09/07 01:52:28;;;;;;;;;;;;;;;13.67;67.39;97140.69;5054281;28;20310;-85
2021/09/07 01:54:54;;;;;;;;;;;;;;;13.64;67.67;97134.03;5053098;28;19965;-85
2021/09/07 01:57:20;;;;;;;;;;;;;;;13.62;67.79;97135.28;5054282;28;19980;-85
2021/09/07 01:59:46;;;;;;;;;;;;;;;13.60;66.95;97124.97;5054126;28;19964;-85
2021/09/07 02:02:12;;;;;;;;;;;;;;;13.61;67.15;97118.69;5052684;28;19992;-85
2021/09/07 02:04:38;;;;;;;;;;;;;;;13.60;67.05;97122.31;5053747;28;19971;-85
2021/09/07 02:07:03;;;;;;;;;;;;;;;13.60;66.97;97120.47;5053988;28;19964;-85
2021/09/07 02:09:29;;;;;;;;;;;;;;;13.60;67.34;97127.59;5053972;28;19965;-85
2021/09/07 02:11:55;;;;;;;;;;;;;;;13.60;67.55;97128.38;5054013;28;19972;-85
2021/09/07 02:14:21;;;;;;;;;;;;;;;13.57;67.60;97131.47;5054266;28;20411;-85
2021/09/07 02:16:47;;;;;;;;;;;;;;;13.54;67.00;97121.41;5053887;28;19968;-85
2021/09/07 02:19:13;;;;;;;;;;;;;;;13.53;66.85;97125.03;5053684;28;19962;-85
2021/09/07 02:21:39;;;;;;;;;;;;;;;13.51;67.18;97126.28;5053183;28;20403;-85
2021/09/07 02:24:05;;;;;;;;;;;;;;;13.49;67.85;97133.59;5053788;28;20049;-85
2021/09/07 02:26:31;;;;;;;;;;;;;;;13.46;67.50;97134.84;5054217;28;20068;-85
2021/09/07 02:28:56;;;;;;;;;;;;;;;13.44;67.51;97138.72;5053828;28;19977;-85
2021/09/07 02:31:22;;;;;;;;;;;;;;;13.41;67.42;97126.78;5053827;28;20490;-85
2021/09/07 02:33:48;;;;;;;;;;;;;;;13.38;67.68;97130.66;5053520;28;20032;-85
2021/09/07 02:36:14;;;;;;;;;;;;;;;13.34;67.51;97129.50;5053578;28;19974;-85
2021/09/07 02:38:40;;;;;;;;;;;;;;;13.33;67.80;97132.34;5052309;28;20395;-85
2021/09/07 02:41:06;;;;;;;;;;;;;;;13.27;67.73;97123.47;5053363;28;20052;-85
2021/09/07 02:43:32;;;;;;;;;;;;;;;13.26;68.18;97126.31;5053502;28;20045;-85
2021/09/07 02:45:58;;;;;;;;;;;;;;;13.20;68.27;97120.06;5053435;28;19963;-85
2021/09/07 02:48:23;;;;;;;;;;;;;;;13.17;68.27;97128.44;5053372;28;19977;-85
2021/09/07 02:50:49;;;;;;;;;;;;;;;13.15;68.49;97125.19;5053346;28;19968;-85
2021/09/07 02:53:15;;;;;;;;;;;;;;;13.11;68.85;97130.09;5053173;28;20010;-85
2021/09/07 02:55:41;;;;;;;;;;;;;;;13.08;68.77;97127.91;5053327;28;19975;-85
2021/09/07 02:58:09;;;;;;;;;;;;;;;13.07;68.70;97128.91;5053591;28;20012;-85
2021/09/07 03:00:35;;;;;;;;;;;;;;;13.03;69.21;97125.09;5053267;28;19965;-85
2021/09/07 03:03:01;;;;;;;;;;;;;;;13.00;68.93;97128.97;5053312;28;20343;-86
2021/09/07 03:05:27;;;;;;;;;;;;;;;12.99;68.93;97131.81;5053038;28;20057;-85
2021/09/07 03:07:53;;;;;;;;;;;;;;;12.94;69.01;97127.19;5053411;28;19962;-85
2021/09/07 03:10:18;;;;;;;;;;;;;;;12.92;68.90;97133.72;5053755;28;19961;-85
2021/09/07 03:12:44;;;;;;;;;;;;;;;12.89;69.29;97137.59;5053144;28;20994;-85
2021/09/07 03:15:10;;;;;;;;;;;;;;;12.86;69.47;97124.03;5055520;28;20049;-85
2021/09/07 03:17:36;;;;;;;;;;;;;;;12.82;69.51;97121.03;5056846;28;20059;-86
2021/09/07 03:20:02;;;;;;;;;;;;;;;12.79;69.49;97121.47;5056980;28;20000;-85
2021/09/07 03:22:32;;;;;;;;;;;;;;;12.77;69.03;97121.69;5056807;28;20006;-86
2021/09/07 03:24:58;;;;;;;;;;;;;;;12.75;69.32;97115.81;5057174;28;19968;-85
2021/09/07 03:27:24;;;;;;;;;;;;;;;12.72;69.35;97118.88;5056715;28;19969;-85
2021/09/07 03:29:49;;;;;;;;;;;;;;;12.71;69.54;97121.72;5056998;28;20430;-86
2021/09/07 03:32:15;;;;;;;;;;;;;;;12.69;68.61;97106.16;5056765;28;19972;-85
2021/09/07 03:34:41;;;;;;;;;;;;;;;12.67;69.76;97115.28;5056784;28;20429;-85
2021/09/07 03:37:07;;;;;;;;;;;;;;;12.64;69.57;97115.69;5056843;28;20003;-85
2021/09/07 03:39:33;;;;;;;;;;;;;;;12.61;69.67;97110.88;5055307;28;19960;-86
2021/09/07 03:41:59;;;;;;;;;;;;;;;12.57;69.47;97108.66;5056461;28;20024;-85
2021/09/07 03:44:25;;;;;;;;;;;;;;;12.54;69.96;97108.31;5056819;28;19969;-86
2021/09/07 03:46:51;;;;;;;;;;;;;;;12.50;69.77;97101.84;5056508;28;20391;-86
2021/09/07 03:49:17;;;;;;;;;;;;;;;12.48;70.23;97106.53;5055427;28;19956;-86
2021/09/07 03:51:43;;;;;;;;;;;;;;;12.44;69.89;97103.50;5056291;28;19960;-86
2021/09/07 03:54:08;;;;;;;;;;;;;;;12.42;69.85;97105.53;5056668;28;20064;-86
2021/09/07 03:56:36;;;;;;;;;;;;;;;12.39;69.92;97105.97;5056196;28;20046;-86
2021/09/07 03:59:02;;;;;;;;;;;;;;;12.37;69.72;97100.94;5056522;28;19967;-86
2021/09/07 04:01:28;;;;;;;;;;;;;;;12.36;69.85;97101.13;5054440;28;19983;-85
2021/09/07 04:03:54;;;;;;;;;;;;;;;12.34;69.81;97100.53;5055902;28;20412;-86
2021/09/07 04:06:20;;;;;;;;;;;;;;;12.33;69.85;97107.63;5056326;28;19981;-86
2021/09/07 04:08:46;;;;;;;;;;;;;;;12.30;69.82;97108.03;5056368;28;19974;-86
2021/09/07 04:11:12;;;;;;;;;;;;;;;12.29;70.81;97101.19;5055830;28;20055;-85
2021/09/07 04:13:38;;;;;;;;;;;;;;;12.28;70.78;97104.81;5056214;28;19966;-85
2021/09/07 04:16:04;;;;;;;;;;;;;;;12.26;70.56;97100.78;5055593;28;19956;-85
2021/09/07 04:18:30;;;;;;;;;;;;;;;12.24;70.45;97103.66;5055632;28;19954;-86
2021/09/07 04:20:56;;;;;;;;;;;;;;;12.22;70.97;97110.13;5055874;28;19968;-85
2021/09/07 04:23:22;;;;;;;;;;;;;;;12.19;70.50;97111.34;5054475;28;20025;-86
2021/09/07 04:25:51;;;;;;;;;;;;;;;12.16;70.62;97107.31;5055278;28;20005;-86
2021/09/07 04:28:16;;;;;;;;;;;;;;;12.14;70.46;97111.19;5055584;28;19959;-86
2021/09/07 04:30:42;;;;;;;;;;;;;;;12.12;70.09;97110.59;5055433;28;19964;-86
2021/09/07 04:33:08;;;;;;;;;;;;;;;12.11;70.85;97117.66;5055459;28;19953;-86
2021/09/07 04:35:34;;;;;;;;;;;;;;;12.10;70.95;97118.69;5054551;28;20019;-86
2021/09/07 04:38:00;;;;;;;;;;;;;;;12.08;71.60;97117.28;5055022;28;19966;-86
2021/09/07 04:40:26;;;;;;;;;;;;;;;12.06;71.40;97121.94;5055769;28;20417;-86
2021/09/07 04:42:52;;;;;;;;;;;;;;;12.04;71.38;97127.41;5055465;28;19984;-86
2021/09/07 04:45:18;;;;;;;;;;;;;;;12.03;71.49;97122.34;5055232;28;19970;-86
2021/09/07 04:47:44;;;;;;;;;;;;;;;12.01;71.40;97124.38;5055615;28;19962;-86
2021/09/07 04:50:10;;;;;;;;;;;;;;;12.00;70.63;97110.44;5053884;28;19970;-86
2021/09/07 04:52:35;;;;;;;;;;;;;;;11.99;71.21;97119.38;5055278;28;19969;-85
2021/09/07 04:55:02;;;;;;;;;;;;;;;11.97;71.45;97119.56;5055610;28;19974;-86
2021/09/07 04:57:27;;;;;;;;;;;;;;;11.97;71.29;97124.03;5055481;28;19970;-86
2021/09/07 04:59:53;;;;;;;;;;;;;;;11.95;71.77;97124.22;5055139;28;19994;-86
2021/09/07 05:02:19;;;;;;;;;;;;;;;11.95;71.49;97126.84;5053686;28;20025;-86
2021/09/07 05:04:45;;;;;;;;;;;;;;;11.95;71.63;97131.31;5055608;28;19968;-86
2021/09/07 05:07:11;;;;;;;;;;;;;;;11.95;71.39;97128.69;5055056;28;19971;-86
2021/09/07 05:09:37;;;;;;;;;;;;;;;11.96;71.06;97131.06;5055170;28;19962;-86
2021/09/07 05:12:04;;;;;;;;;;;;;;;11.97;71.29;97135.34;5054046;28;19973;-86
2021/09/07 05:14:30;;;;;;;;;;;;;;;11.98;71.65;97134.31;5054752;28;19962;-85
2021/09/07 05:16:55;;;;;;;;;;;;;;;12.00;72.21;97133.31;5053438;28;19965;-86
2021/09/07 05:19:21;;;;;;;;;;;;;;;12.03;71.69;97133.66;5054943;28;19966;-86
2021/09/07 05:21:47;;;;;;;;;;;;;;;12.06;72.36;97140.34;5054309;28;20331;-85
2021/09/07 05:24:13;;;;;;;;;;;;;;;12.07;72.28;97147.22;5054867;28;19972;-86
2021/09/07 05:26:39;;;;;;;;;;;;;;;12.09;72.37;97147.81;5052803;28;19965;-86
2021/09/07 05:29:05;;;;;;;;;;;;;;;12.11;72.25;97143.16;5054281;28;20026;-85
2021/09/07 05:31:32;;;;;;;;;;;;;;;12.13;72.22;97141.91;5055425;28;20006;-86
2021/09/07 05:33:58;;;;;;;;;;;;;;;12.15;72.28;97132.00;5055494;28;19980;-85
2021/09/07 05:36:24;;;;;;;;;;;;;;;12.19;71.84;97132.38;5054851;28;20057;-86
2021/09/07 05:38:50;;;;;;;;;;;;;;;12.23;71.63;97132.78;5054634;28;19973;-86
2021/09/07 05:41:16;;;;;;;;;;;;;;;12.27;72.69;97132.13;5054176;28;19968;-86
2021/09/07 05:43:42;;;;;;;;;;;;;;;12.29;72.87;97131.94;5053980;28;19967;-85
2021/09/07 05:46:07;;;;;;;;;;;;;;;12.33;72.78;97139.19;5054546;28;19964;-85
2021/09/07 05:48:33;;;;;;;;;;;;;;;12.36;72.88;97144.00;5054952;28;19964;-85
2021/09/07 05:50:59;;;;;;;;;;;;;;;12.39;73.10;97145.44;5053975;28;19966;-85
2021/09/07 05:53:25;;;;;;;;;;;;;;;12.41;73.78;97148.66;5054168;28;19971;-86
2021/09/07 05:55:51;;;;;;;;;;;;;;;12.43;73.75;97154.50;5053993;28;20064;-85
2021/09/07 05:58:17;;;;;;;;;;;;;;;12.46;73.86;97148.81;5053783;28;20010;-85
2021/09/07 06:00:43;;;;;;;;;;;;;;;12.49;73.66;97164.16;5054628;28;19963;-85
2021/09/07 06:03:09;;;;;;;;;;;;;;;12.51;74.39;97156.88;5053832;28;19973;-85
2021/09/07 06:05:35;;;;;;;;;;;;;;;12.55;74.23;97162.53;5052419;28;19974;-85
2021/09/07 06:08:02;;;;;;;;;;;;;;;12.58;73.34;97154.22;5053848;28;19964;-85
2021/09/07 06:10:28;;;;;;;;;;;;;;;12.63;74.93;97162.25;5053958;28;20312;-84
2021/09/07 06:12:54;;;;;;;;;;;;;;;12.65;72.95;97164.69;5053748;28;19981;-85
2021/09/07 06:15:20;;;;;;;;;;;;;;;12.66;73.45;97169.75;5054057;28;19972;-85
2021/09/07 06:17:46;;;;;;;;;;;;;;;12.69;73.72;97168.50;5053723;28;19985;-85
2021/09/07 06:20:12;;;;;;;;;;;;;;;12.69;74.87;97168.50;5054052;28;19966;-85
2021/09/07 06:22:38;;;;;;;;;;;;;;;12.68;72.28;97172.16;5053969;28;20068;-84
2021/09/07 06:25:05;;;;;;;;;;;;;;;12.65;73.31;97180.47;5055856;28;19965;-85
2021/09/07 06:27:32;;;;;;;;;;;;;;;12.67;74.17;97187.13;5053882;28;20488;-85
2021/09/07 06:29:58;;;;;;;;;;;;;;;12.72;73.59;97186.50;5053623;28;19977;-85
2021/09/07 06:32:24;;;;;;;;;;;;;;;12.85;73.16;97190.84;5053723;28;20004;-84
2021/09/07 06:34:50;;;;;;;;;;;;;;;12.96;72.93;97188.34;5053868;28;20065;-85
2021/09/07 06:37:16;;;;;;;;;;;;;;;13.06;72.58;97176.50;5053749;28;19965;-85
2021/09/07 06:39:42;;;;;;;;;;;;;;;13.21;72.91;97184.91;5053466;28;19965;-85
2021/09/07 06:42:08;;;;;;;;;;;;;;;13.45;71.88;97182.50;5053335;28;20586;-84
2021/09/07 06:44:33;;;;;;;;;;;;;;;13.83;72.88;97179.66;5053377;28;19970;-84
2021/09/07 06:47:00;;;;;;;;;;;;;;;14.23;71.03;97176.53;5053872;28;20425;-84
2021/09/07 06:49:27;;;;;;;;;;;;;;;14.60;69.75;97173.84;5054499;28;19969;-84
2021/09/07 06:51:53;;;;;;;;;;;;;;;14.74;68.06;97169.16;5057960;28;20425;-84
2021/09/07 06:54:18;;;;;;;;;;;;;;;14.81;68.02;97170.66;5057479;28;19976;-84
2021/09/07 06:56:44;;;;;;;;;;;;;;;14.77;67.89;97168.72;5057829;28;20433;-84
2021/09/07 06:59:10;;;;;;;;;;;;;;;14.74;68.80;97171.78;5057402;28;19978;-84
2021/09/07 07:01:36;;;;;;;;;;;;;;;14.77;68.38;97169.50;5057764;28;20081;-84
2021/09/07 07:04:02;;;;;;;;;;;;;;;14.91;68.96;97174.56;5057518;28;19987;-84
2021/09/07 07:06:28;;;;;;;;;;;;;;;15.09;67.74;97171.03;5057188;28;19984;-84
2021/09/07 07:08:54;;;;;;;;;;;;;;;15.27;67.01;97178.88;5057445;28;19987;-84
2021/09/07 07:11:20;;;;;;;;;;;;;;;15.43;66.74;97177.38;5056917;28;20013;-84
2021/09/07 07:13:46;;;;;;;;;;;;;;;15.53;66.91;97174.94;5057276;28;19982;-84
2021/09/07 07:16:12;;;;;;;;;;;;;;;15.63;66.67;97177.81;5057399;28;19981;-84
2021/09/07 07:18:38;;;;;;;;;;;;;;;15.80;66.49;97182.41;5056914;28;19976;-83
2021/09/07 07:21:04;;;;;;;;;;;;;;;16.03;66.04;97173.63;5056830;28;20028;-84
2021/09/07 07:23:29;;;;;;;;;;;;;;;16.17;65.08;97168.88;5056749;28;20000;-83
2021/09/07 07:25:55;;;;;;;;;;;;;;;16.33;66.63;97186.63;5056935;28;20328;-84
2021/09/07 07:28:21;;;;;;;;;;;;;;;16.46;65.52;97174.16;5056828;28;19995;-83
2021/09/07 07:30:47;;;;;;;;;;;;;;;16.35;65.35;97178.47;5056862;28;20407;-84
2021/09/07 07:33:14;;;;;;;;;;;;;;;16.23;65.03;97181.16;5057181;28;20047;-83
2021/09/07 07:35:41;;;;;;;;;;;;;;;16.09;65.17;97177.97;5056953;28;19978;-84
2021/09/07 07:38:07;;;;;;;;;;;;;;;15.93;65.72;97187.44;5056836;28;19974;-83
2021/09/07 07:40:33;;;;;;;;;;;;;;;15.85;66.58;97194.94;5056540;28;19969;-83
2021/09/07 07:43:00;;;;;;;;;;;;;;;15.88;67.49;97187.34;5056661;28;19997;-84
2021/09/07 07:45:25;;;;;;;;;;;;;;;15.98;67.44;97202.63;5056598;28;19998;-83
2021/09/07 07:47:51;;;;;;;;;;;;;;;16.07;67.37;97203.88;5056724;28;20443;-83
2021/09/07 07:50:17;;;;;;;;;;;;;;;16.22;67.00;97206.81;5056607;28;19998;-83
2021/09/07 07:52:43;;;;;;;;;;;;;;;16.30;66.45;97205.66;5056265;28;20009;-83
2021/09/07 07:55:09;;;;;;;;;;;;;;;16.32;66.69;97216.81;5054602;28;20002;-83
2021/09/07 07:57:35;;;;;;;;;;;;;;;16.36;67.41;97217.94;5056333;28;19982;-83
2021/09/07 08:00:02;;;;;;;;;;;;;;;16.44;67.42;97222.03;5056770;28;20064;-83
2021/09/07 08:02:28;;;;;;;;;;;;;;;16.60;67.50;97217.84;5054893;28;20014;-83
2021/09/07 08:04:54;;;;;;;;;;;;;;;16.92;67.81;97225.31;5056135;28;19998;-83
2021/09/07 08:07:20;;;;;;;;;;;;;;;17.31;66.68;97217.47;5055028;28;20506;-83
2021/09/07 08:09:46;;;;;;;;;;;;;;;17.63;64.65;97199.91;5056076;28;20006;-83
2021/09/07 08:12:16;;;;;;;;;;;;;;;17.82;63.58;97194.31;5056344;28;20002;-83
2021/09/07 08:14:42;;;;;;;;;;;;;;;17.83;62.95;97193.31;5054980;28;20483;-83
2021/09/07 08:17:08;;;;;;;;;;;;;;;17.82;63.18;97197.78;5056030;28;19999;-83
2021/09/07 08:19:34;;;;;;;;;;;;;;;17.75;63.31;97202.47;5055430;28;20424;-82
2021/09/07 08:22:00;;;;;;;;;;;;;;;17.71;63.40;97200.53;5055613;28;20022;-83
2021/09/07 08:24:27;;;;;;;;;;;;;;;17.83;62.91;97190.66;5055415;28;20013;-83
2021/09/07 08:26:53;;;;;;;;;;;;;;;17.96;62.25;97184.97;5055953;28;20011;-83
2021/09/07 08:29:19;;;;;;;;;;;;;;;18.19;62.60;97181.25;5055896;28;20044;-83
2021/09/07 08:31:45;;;;;;;;;;;;;;;18.50;63.44;97192.22;5055564;28;20457;-83
2021/09/07 08:34:11;;;;;;;;;;;;;;;18.65;60.09;97165.78;5055804;28;20085;-83
2021/09/07 08:36:37;;;;;;;;;;;;;;;18.85;59.22;97167.84;5055573;28;20044;-83
2021/09/07 08:39:04;;;;;;;;;;;;;;;19.08;60.28;97175.75;5055732;28;20002;-83
2021/09/07 08:41:31;;;;;;;;;;;;;;;19.25;58.73;97168.41;5055921;28;20009;-83
2021/09/07 08:43:56;;;;;;;;;;;;;;;19.36;57.89;97155.97;5055314;28;20017;-83
2021/09/07 08:46:23;;;;;;;;;;;;;;;19.35;57.73;97159.72;5055398;28;20045;-83
2021/09/07 08:48:49;;;;;;;;;;;;;;;19.41;58.79;97156.81;5055361;28;20468;-82
2021/09/07 08:51:16;;;;;;;;;;;;;;;19.59;57.41;97147.63;5055140;28;20037;-83
2021/09/07 08:53:42;;;;;;;;;;;;;;;19.76;57.80;97144.81;5055598;28;20002;-83
2021/09/07 08:56:09;;;;;;;;;;;;;;;19.91;57.43;97152.06;5055234;28;20009;-83
2021/09/07 08:58:34;;;;;;;;;;;;;;;20.04;57.60;97148.09;5055465;28;19997;-82
2021/09/07 09:01:16;;;;;;;;;;;;;;;20.19;54.78;97123.38;5055182;28;20005;-83
2021/09/07 09:03:43;;;;;;;;;;;;;;;20.26;54.35;97130.06;5055054;28;20386;-83
2021/09/07 09:06:09;;;;;;;;;;;;;;;20.34;54.77;97134.06;5055037;28;20000;-82
2021/09/07 09:08:35;;;;;;;;;;;;;;;20.43;55.81;97148.47;5055088;28;19996;-83
2021/09/07 09:11:11;;;;;;;;;;;;;;;20.51;55.06;97135.69;5054814;28;19969;-82
2021/09/07 09:13:41;;;;;;;;;;;;;;;20.56;52.80;97120.50;5054601;28;19997;-83
2021/09/07 09:16:07;;;;;;;;;;;;;;;20.63;53.22;97122.94;5054699;28;19995;-82
2021/09/07 09:18:38;;;;;;;;;;;;;;;20.66;54.25;97135.72;5054491;28;19995;-82
2021/09/07 09:21:19;;;;;;;;;;;;;;;20.68;54.18;97138.94;5054857;28;20343;-82
2021/09/07 09:24:03;;;;;;;;;;;;;;;20.72;55.05;97153.31;5054486;28;20029;-82
2021/09/07 09:26:29;;;;;;;;;;;;;;;20.80;54.80;97146.66;5054388;28;20002;-82
2021/09/07 09:28:57;;;;;;;;;;;;;;;20.86;50.84;97108.28;5054769;28;19995;-82
2021/09/07 09:31:23;;;;;;;;;;;;;;;20.95;53.91;97133.34;5052815;28;20003;-82
2021/09/07 09:34:01;;;;;;;;;;;;;;;21.01;51.68;97121.59;5054648;28;20357;-82
2021/09/07 09:36:29;;;;;;;;;;;;;;;21.02;52.73;97131.22;5054739;28;19993;-83
2021/09/07 09:38:55;;;;;;;;;;;;;;;21.09;53.31;97145.06;5054410;28;19993;-82
2021/09/07 09:41:21;;;;;;;;;;;;;;;21.19;53.59;97143.47;5054021;28;20014;-82
2021/09/07 09:43:48;;;;;;;;;;;;;;;21.22;50.89;97110.91;5054391;28;20185;-82
2021/09/07 09:46:23;;;;;;;;;;;;;;;21.24;52.41;97128.22;5054230;28;19985;-82
2021/09/07 09:48:49;;;;;;;;;;;;;;;21.32;54.04;97144.78;5054393;28;19983;-82
2021/09/07 09:51:17;;;;;;;;;;;;;;;21.37;52.82;97120.75;5054292;28;19982;-82
2021/09/07 09:53:44;;;;;;;;;;;;;;;21.43;52.70;97125.81;5053823;28;19990;-82
2021/09/07 09:56:11;;;;;;;;;;;;;;;21.48;52.98;97125.00;5053890;28;19988;-82
2021/09/07 09:58:37;;;;;;;;;;;;;;;21.54;49.42;97113.25;5054414;28;19970;-82
2021/09/07 10:01:05;;;;;;;;;;;;;;;21.64;52.82;97133.78;5054292;28;20345;-82
2021/09/07 10:03:31;;;;;;;;;;;;;;;21.67;47.88;97098.50;5054081;28;20349;-82
2021/09/07 10:05:57;;;;;;;;;;;;;;;21.70;48.58;97111.34;5053398;28;19961;-82
2021/09/07 10:08:23;;;;;;;;;;;;;;;21.75;51.61;97129.97;5053698;28;20362;-82
2021/09/07 10:10:52;;;;;;;;;;;;;;;21.85;49.01;97110.47;5054257;28;19983;-82
2021/09/07 10:13:19;;;;;;;;;;;;;;;21.94;49.57;97114.16;5052654;28;19965;-82
2021/09/07 10:15:58;;;;;;;;;;;;;;;22.00;48.72;97112.25;5053930;28;20430;-82
2021/09/07 10:23:00;;;;;;;;;;;;;;;22.18;48.63;97111.63;5042024;28;19972;-82
2021/09/07 10:24:05;;;;;;;;;;;;;;;22.30;48.90;97122.03;5052962;28;20010;-82
2021/09/07 10:26:37;;;;;;;;;;;;;;;22.38;48.10;97113.41;5053677;28;20434;-81
2021/09/07 10:29:05;;;;;;;;;;;;;;;22.47;48.42;97111.75;5053547;28;20347;-81
2021/09/07 10:31:38;;;;;;;;;;;;;;;22.60;48.35;97115.66;5053730;28;19976;-81
2021/09/07 10:34:04;;;;;;;;;;;;;;;22.66;48.09;97103.84;5051840;28;19972;-81
2021/09/07 10:36:32;;;;;;;;;;;;;;;22.79;47.82;97110.44;5053521;28;20035;-81
2021/09/07 10:39:01;;;;;;;;;;;;;;;22.94;47.62;97106.81;5053450;28;19990;-82
2021/09/07 10:41:30;;;;;;;;;;;;;;;23.06;45.40;97088.56;5051547;28;19982;-81
2021/09/07 10:43:57;;;;;;;;;;;;;;;23.13;46.55;97106.94;5053180;28;19972;-81
2021/09/07 10:46:42;;;;;;;;;;;;;;;23.21;45.36;97100.97;5052637;28;19978;-81
2021/09/07 10:49:21;;;;;;;;;;;;;;;23.30;42.85;97106.50;5043753;28;19976;-81
2021/09/07 10:52:05;;;;;;;;;;;;;;;23.37;44.34;97117.69;5053422;28;19982;-81
2021/09/07 10:54:32;;;;;;;;;;;;;;;23.46;44.53;97126.69;5040654;28;19983;-81
2021/09/07 10:56:59;;;;;;;;;;;;;;;23.58;43.35;97117.44;5053335;28;20338;-81
2021/09/07 10:59:43;;;;;;;;;;;;;;;23.75;45.03;97130.38;5053279;28;19986;-81
2021/09/07 11:02:28;;;;;;;;;;;;;;;23.87;42.09;97122.75;5053314;28;19988;-81
2021/09/07 11:04:54;;;;;;;;;;;;;;;23.88;41.63;97127.03;5044635;28;19986;-82
2021/09/07 11:07:35;;;;;;;;;;;;;;;24.03;41.21;97112.66;5053815;28;19999;-81
2021/09/07 11:10:01;;;;;;;;;;;;;;;24.08;44.41;97132.13;5053153;28;20430;-81
2021/09/07 11:12:28;;;;;;;;;;;;;;;24.01;41.70;97123.66;5053369;28;19980;-81
2021/09/07 11:15:10;;;;;;;;;;;;;;;24.08;40.93;97126.75;5052900;28;20348;-81
2021/09/07 11:17:48;;;;;;;;;;;;;;;24.19;40.94;97116.72;5052370;28;19976;-81
2021/09/07 11:20:14;;;;;;;;;;;;;;;24.30;39.15;97107.44;5053222;28;19969;-81
2021/09/07 11:22:40;;;;;;;;;;;;;;;24.37;42.06;97117.00;5053031;28;20008;-81
2021/09/07 11:25:09;;;;;;;;;;;;;;;24.41;41.45;97113.44;5052906;28;19977;-81
2021/09/07 11:27:54;;;;;;;;;;;;;;;24.42;39.20;97101.66;5053020;28;19967;-81
2021/09/07 11:30:23;;;;;;;;;;;;;;;24.35;40.56;97111.94;5053510;28;20444;-81
2021/09/07 11:32:55;;;;;;;;;;;;;;;24.38;39.86;97103.31;5052989;28;19992;-81
2021/09/07 11:35:21;;;;;;;;;;;;;;;24.42;40.79;97107.00;5053542;28;20346;-81
2021/09/07 11:37:47;;;;;;;;;;;;;;;24.48;38.42;97100.50;5056886;28;19969;-81
2021/09/07 11:40:16;;;;;;;;;;;;;;;24.53;40.93;97115.72;5056340;28;19979;-81
2021/09/07 11:42:43;;;;;;;;;;;;;;;24.63;40.83;97107.53;5056948;28;19972;-81
2021/09/07 11:45:15;;;;;;;;;;;;;;;24.74;39.63;97086.69;5056488;28;20350;-81
2021/09/07 11:47:47;;;;;;;;;;;;;;;24.69;37.60;97076.84;5056796;28;19980;-81
2021/09/07 11:50:17;;;;;;;;;;;;;;;24.67;37.50;97078.22;5056406;28;19974;-81
2021/09/07 11:52:44;;;;;;;;;;;;;;;24.71;40.10;97104.19;5056865;28;19980;-81
2021/09/07 11:55:29;;;;;;;;;;;;;;;24.78;39.30;97090.38;5056284;28;19971;-81
2021/09/07 11:57:55;;;;;;;;;;;;;;;24.87;39.60;97090.50;5056254;28;19971;-81
2021/09/07 12:00:21;;;;;;;;;;;;;;;24.90;37.83;97074.63;5056234;28;20023;-81
2021/09/07 12:02:47;;;;;;;;;;;;;;;25.04;39.55;97088.03;5055918;28;19978;-81
2021/09/07 12:05:13;;;;;;;;;;;;;;;25.16;38.33;97081.38;5054452;28;19976;-82
2021/09/07 12:07:52;;;;;;;;;;;;;;;25.16;36.47;97087.59;5056155;28;19980;-82
2021/09/07 12:10:18;;;;;;;;;;;;;;;25.06;36.50;97085.88;5055996;28;19972;-81
2021/09/07 12:12:44;;;;;;;;;;;;;;;25.08;38.10;97086.38;5055127;28;20386;-81
2021/09/07 12:15:16;;;;;;;;;;;;;;;25.15;36.89;97085.97;5055453;28;19983;-81
2021/09/07 12:17:45;;;;;;;;;;;;;;;25.21;37.81;97079.44;5055751;28;19969;-81
2021/09/07 12:20:14;;;;;;;;;;;;;;;25.28;38.58;97089.78;5056006;28;19975;-81
2021/09/07 12:22:40;;;;;;;;;;;;;;;25.39;38.43;97085.03;5055691;28;20001;-81
2021/09/07 12:25:06;;;;;;;;;;;;;;;25.44;37.18;97058.88;5055746;28;20008;-81
2021/09/07 12:27:38;;;;;;;;;;;;;;;25.50;37.60;97071.09;5055830;28;19969;-81
2021/09/07 12:30:10;;;;;;;;;;;;;;;25.47;36.03;97052.91;5055627;28;19965;-81
2021/09/07 12:32:54;;;;;;;;;;;;;;;25.42;37.32;97073.69;5055791;28;19965;-81
2021/09/07 12:35:40;;;;;;;;;;;;;;;25.43;34.93;97059.16;5055575;28;19970;-82
2021/09/07 12:38:10;;;;;;;;;;;;;;;25.58;37.60;97077.69;5055357;28;20443;-81
2021/09/07 12:40:37;;;;;;;;;;;;;;;25.69;33.65;97046.03;5055423;28;19977;-81
2021/09/07 12:43:11;;;;;;;;;;;;;;;25.73;34.94;97055.06;5055247;28;19972;-81
2021/09/07 12:45:37;;;;;;;;;;;;;;;25.85;36.52;97070.66;5055397;28;19970;-81
2021/09/07 12:48:04;;;;;;;;;;;;;;;25.95;36.22;97061.63;5054601;28;19966;-81
2021/09/07 12:50:30;;;;;;;;;;;;;;;25.97;36.03;97062.13;5055240;28;19978;-81